createdAt,value
2023-02-13T05:29:20.606Z,100085.78
2023-02-13T05:34:23.934Z,100096.63
2023-02-13T05:39:25.591Z,100091.25
2023-02-13T05:44:27.276Z,100093.88
2023-02-13T05:49:28.896Z,100066.47
2023-02-13T05:54:30.524Z,100089.63
2023-02-13T05:59:32.148Z,100067.91
2023-02-13T06:04:33.830Z,100091.84
2023-02-13T06:09:35.491Z,100095.09
2023-02-13T06:14:37.090Z,100105.41
2023-02-13T06:19:38.734Z,100105.88
2023-02-13T06:24:40.392Z,100102.81
2023-02-13T06:29:42.016Z,100112.53
2023-02-13T06:34:43.655Z,100115.97
2023-02-13T06:39:45.469Z,100125.94
2023-02-13T06:44:47.064Z,100111.88
2023-02-13T06:49:48.785Z,100128.16
2023-02-13T06:54:50.510Z,100130.38
2023-02-13T06:59:52.204Z,100133.38
2023-02-13T07:04:53.887Z,100152.94
2023-02-13T07:09:55.562Z,100150.94
2023-02-13T07:14:57.262Z,100163.34
2023-02-13T07:20:01.701Z,100151.78
2023-02-13T07:25:04.040Z,100141.75
2023-02-13T07:30:06.886Z,100159.00
2023-02-13T07:35:08.718Z,100159.47
2023-02-13T07:40:10.891Z,100152.16
2023-02-13T07:45:12.509Z,100150.34
2023-02-13T07:50:14.332Z,100165.13
2023-02-13T07:55:16.231Z,100167.53
2023-02-13T08:00:18.650Z,100157.34
2023-02-13T08:05:20.308Z,100150.88
2023-02-13T08:10:40.761Z,100166.69
2023-02-13T08:15:44.707Z,100159.88
2023-02-13T08:20:46.348Z,100161.47
2023-02-13T08:25:49.947Z,100166.47
2023-02-13T08:30:51.852Z,100169.91
2023-02-13T08:35:53.576Z,100172.41
2023-02-13T08:40:57.968Z,100178.84
2023-02-13T08:46:01.095Z,100171.72
2023-02-13T08:51:08.776Z,100183.81
2023-02-13T08:56:11.711Z,100181.94
2023-02-13T09:01:13.450Z,100173.44
2023-02-13T09:06:15.217Z,100182.47
2023-02-13T09:11:16.917Z,100187.25
2023-02-13T09:16:18.637Z,100188.72
2023-02-13T09:21:23.789Z,100180.94
2023-02-13T09:26:25.564Z,100182.56
2023-02-13T09:31:29.448Z,100197.53
2023-02-13T09:36:31.538Z,100185.97
2023-02-13T09:41:37.668Z,100192.00
2023-02-13T09:46:40.826Z,100205.88
2023-02-13T09:51:45.538Z,100193.25
2023-02-13T09:57:07.348Z,100196.34
2023-02-13T10:02:33.473Z,100201.41
2023-02-13T10:07:53.784Z,100206.03
2023-02-13T10:13:31.278Z,100204.28
2023-02-13T10:19:19.353Z,100208.59
2023-02-13T10:24:33.278Z,100203.72
2023-02-13T10:30:05.612Z,100208.19
2023-02-13T10:35:27.830Z,100193.50
2023-02-13T10:40:38.864Z,100187.56
2023-02-13T10:45:55.708Z,100189.84
2023-02-13T10:51:00.252Z,100185.41
2023-02-13T10:56:04.749Z,100178.38
2023-02-13T11:01:46.373Z,100173.63
2023-02-13T11:07:06.071Z,100178.03
2023-02-13T11:12:26.646Z,100168.56
2023-02-13T11:17:32.358Z,100148.69
2023-02-13T11:22:38.121Z,100148.63
2023-02-13T11:27:40.671Z,100143.63
2023-02-13T11:32:42.393Z,100133.69
2023-02-13T11:37:44.063Z,100147.75
2023-02-13T11:42:51.223Z,100142.44
2023-02-13T11:47:55.531Z,100149.78
2023-02-13T11:53:20.827Z,100135.63
2023-02-13T11:58:28.734Z,100151.41
2023-02-13T12:03:32.349Z,100153.00
2023-02-13T12:08:37.369Z,100149.03
2023-02-13T12:13:39.668Z,100146.00
2023-02-13T12:18:46.710Z,100131.56
2023-02-13T12:24:03.434Z,100127.25
2023-02-13T12:29:05.431Z,100144.38
2023-02-13T12:34:35.176Z,100139.88
2023-02-13T12:39:57.164Z,100128.66
2023-02-13T12:45:03.344Z,100124.66
2023-02-13T12:50:29.313Z,100114.81
2023-02-13T12:55:48.669Z,100108.41
2023-02-13T13:01:19.686Z,100114.94
2023-02-13T13:06:30.454Z,100117.09
2023-02-13T13:11:51.682Z,100113.81
2023-02-13T13:17:18.244Z,100110.44
2023-02-13T13:22:31.044Z,100127.94
2023-02-13T13:27:50.163Z,100122.47
2023-02-13T13:32:56.910Z,100119.41
2023-02-13T13:38:15.761Z,100112.25
2023-02-13T13:44:16.425Z,100113.56
2023-02-13T13:49:36.391Z,100116.16
2023-02-13T13:54:38.202Z,100113.31
2023-02-13T13:59:39.999Z,100115.53
2023-02-13T14:05:00.330Z,100091.31
2023-02-13T14:10:02.076Z,100093.63
2023-02-13T14:15:03.876Z,100091.09
2023-02-13T14:20:30.784Z,100082.88
2023-02-13T14:25:33.412Z,100089.81
2023-02-13T14:30:38.173Z,100076.50
2023-02-13T14:35:39.924Z,100073.69
2023-02-13T14:40:48.044Z,100067.00
2023-02-13T14:45:55.975Z,100068.44
2023-02-13T14:51:00.131Z,100051.66
2023-02-13T14:56:15.026Z,100041.22
2023-02-13T15:01:29.098Z,100045.19
2023-02-13T15:06:36.114Z,100027.75
2023-02-13T15:11:44.036Z,100037.38
2023-02-13T15:16:50.294Z,100031.88
2023-02-13T15:22:00.392Z,100042.16
2023-02-13T15:27:06.697Z,100026.56
2023-02-13T15:32:19.594Z,100037.88
2023-02-13T15:37:24.290Z,100022.34
2023-02-13T15:42:25.940Z,100027.13
2023-02-13T15:47:31.758Z,100039.63
2023-02-13T15:52:37.955Z,100045.53
2023-02-13T15:57:40.936Z,100045.53
2023-02-13T16:02:47.619Z,100047.84
2023-02-13T16:07:58.218Z,100051.25
2023-02-13T16:13:03.493Z,100044.28
2023-02-13T16:18:11.715Z,100009.50
2023-02-13T16:23:20.911Z,100037.41
2023-02-13T16:28:26.536Z,100037.47
2023-02-13T16:33:37.929Z,100035.53
2023-02-13T16:38:42.327Z,100054.53
2023-02-13T16:43:49.332Z,100058.53
2023-02-13T16:48:56.984Z,100058.13
2023-02-13T16:54:02.096Z,100068.13
2023-02-13T16:59:22.849Z,100062.47
2023-02-13T17:04:25.371Z,100057.50
2023-02-13T17:09:27.155Z,100069.84
2023-02-13T17:14:28.894Z,100064.59
2023-02-13T17:19:30.628Z,100091.91
2023-02-13T17:24:32.502Z,100082.72
2023-02-13T17:29:34.189Z,100083.72
2023-02-13T17:34:35.871Z,100107.16
2023-02-13T17:39:37.561Z,100102.97
2023-02-13T17:44:39.319Z,100097.69
2023-02-13T17:49:41.467Z,100091.41
2023-02-13T17:54:44.864Z,100084.91
2023-02-13T17:59:47.149Z,100083.31
2023-02-13T18:04:49.489Z,100085.19
2023-02-13T18:09:51.911Z,100088.72
2023-02-13T18:14:54.948Z,100101.78
2023-02-13T18:20:01.850Z,100084.66
2023-02-13T18:25:04.188Z,100082.75
2023-02-13T18:30:07.184Z,100090.75
2023-02-13T18:35:09.545Z,100078.22
2023-02-13T18:40:11.936Z,100071.06
2023-02-13T18:45:13.633Z,100081.34
2023-02-13T18:50:15.260Z,100081.84
2023-02-13T18:55:17.079Z,100085.50
2023-02-13T19:00:20.009Z,100073.84
2023-02-13T19:05:22.755Z,100073.03
2023-02-13T19:10:24.466Z,100083.88
2023-02-13T19:15:26.077Z,100098.56
2023-02-13T19:20:27.931Z,100096.03
2023-02-13T19:25:29.554Z,100095.81
2023-02-13T19:30:31.796Z,100083.72
2023-02-13T19:35:33.464Z,100081.44
2023-02-13T19:40:35.340Z,100082.03
2023-02-13T19:45:36.998Z,100074.31
2023-02-13T19:50:39.251Z,100062.81
2023-02-13T19:55:40.939Z,100069.66
2023-02-13T20:00:42.570Z,100041.88
2023-02-13T20:05:44.347Z,100052.78
2023-02-13T20:10:46.343Z,100051.91
2023-02-13T20:15:48.157Z,100046.66
2023-02-13T20:20:50.045Z,100037.00
2023-02-13T20:25:51.668Z,100042.28
2023-02-13T20:30:53.610Z,100038.72
2023-02-13T20:35:55.836Z,100031.66
2023-02-13T20:40:57.828Z,100029.81
2023-02-13T20:45:59.692Z,100040.81
2023-02-13T20:51:02.946Z,100046.97
2023-02-13T20:56:06.776Z,100047.72
2023-02-13T21:01:18.156Z,100042.94
2023-02-13T21:06:34.998Z,100043.72
2023-02-13T21:11:38.319Z,100037.84
